Time;durP1;ratioP1;P1;durP2;ratioP2;P2;SDS_P1;SDS_P2;PMS_P1;PMS_P2;Temp;Humidity;BMP_temperature;BMP_pressure;BME280_temperature;BME280_humidity;BME280_pressure;Samples;Min_cycle;Max_cycle;Signal;HPM_P1;HPM_P2
2022/05/14 00:00:18;;;;;;;3.05;2.80;;;19.00;69.00;;;;;;5011581;28;20710;-73
2022/05/14 00:02:44;;;;;;;3.53;3.33;;;19.00;69.20;;;;;;5013046;28;20216;-73
2022/05/14 00:05:10;;;;;;;3.17;2.97;;;19.00;69.10;;;;;;5008541;28;20697;-73
2022/05/14 00:07:37;;;;;;;4.40;3.15;;;19.00;69.20;;;;;;5017259;28;20353;-73
2022/05/14 00:10:04;;;;;;;3.30;3.10;;;18.90;69.10;;;;;;5050404;28;20272;-73
2022/05/14 00:15:14;;;;;;;3.03;2.78;;;18.90;69.70;;;;;;5013004;28;20269;-73
2022/05/14 00:17:40;;;;;;;2.75;2.65;;;18.80;69.60;;;;;;5014544;28;20244;-73
2022/05/14 00:20:06;;;;;;;3.80;3.58;;;18.80;69.50;;;;;;5017524;28;20195;-74
2022/05/14 00:22:32;;;;;;;3.38;2.58;;;18.80;69.40;;;;;;5015835;28;20212;-73
2022/05/14 00:24:58;;;;;;;3.28;3.17;;;18.70;70.80;;;;;;5012363;28;20236;-74
2022/05/14 00:27:23;;;;;;;3.60;2.75;;;18.70;69.50;;;;;;5010699;28;20185;-73
2022/05/14 00:29:50;;;;;;;2.70;2.60;;;;;;;;;;5008098;28;20794;-73
2022/05/14 00:32:16;;;;;;;3.03;2.83;;;18.70;69.20;;;;;;5011737;28;20238;-74
2022/05/14 00:34:41;;;;;;;3.25;2.83;;;18.60;70.10;;;;;;5013582;28;20690;-74
2022/05/14 00:37:07;;;;;;;3.33;3.03;;;18.60;69.90;;;;;;5015447;28;20185;-74
2022/05/14 00:39:33;;;;;;;4.20;3.33;;;18.60;70.10;;;;;;5014492;28;20267;-74
2022/05/14 00:41:58;;;;;;;3.40;3.30;;;18.60;70.10;;;;;;5012081;28;20181;-75
2022/05/14 00:44:24;;;;;;;3.45;3.08;;;18.50;70.60;;;;;;5009254;28;20261;-74
2022/05/14 00:46:59;;;;;;;2.63;2.53;;;18.60;70.60;;;;;;5007837;28;20674;-74
2022/05/14 00:49:27;;;;;;;3.50;3.25;;;18.50;70.10;;;;;;5011835;28;20658;-74
2022/05/14 00:51:53;;;;;;;3.25;2.95;;;18.50;70.30;;;;;;5008275;28;20184;-74
2022/05/14 00:54:25;;;;;;;3.30;3.10;;;18.40;70.60;;;;;;5008591;28;20231;-74
2022/05/14 00:56:55;;;;;;;3.25;3.03;;;18.40;70.40;;;;;;5012718;28;20224;-74
2022/05/14 00:59:24;;;;;;;3.50;3.30;;;18.30;71.30;;;;;;5015990;28;20199;-73
2022/05/14 01:01:50;;;;;;;9.45;3.15;;;18.30;70.50;;;;;;5025101;28;20187;-74
2022/05/14 01:04:17;;;;;;;3.40;3.22;;;18.30;70.90;;;;;;5011789;28;20189;-74
2022/05/14 01:07:08;;;;;;;4.28;2.95;;;18.30;71.20;;;;;;5012818;28;20181;-74
2022/05/14 01:09:39;;;;;;;3.35;3.05;;;18.20;72.40;;;;;;5010158;28;20270;-75
2022/05/14 01:12:07;;;;;;;2.90;2.70;;;18.20;70.90;;;;;;5011236;28;20208;-73
2022/05/14 01:14:33;;;;;;;3.28;3.03;;;18.10;72.00;;;;;;5007278;28;20853;-74
2022/05/14 01:16:59;;;;;;;2.80;2.67;;;18.20;71.60;;;;;;5011726;28;20577;-73
2022/05/14 01:19:25;;;;;;;3.03;2.83;;;18.10;72.50;;;;;;5012902;28;20188;-73
2022/05/14 01:22:16;;;;;;;3.78;3.00;;;18.10;72.20;;;;;;5030205;28;20188;-74
2022/05/14 01:28:02;;;;;;;3.33;3.08;;;18.00;72.80;;;;;;5013552;28;20203;-73
2022/05/14 01:30:29;;;;;;;3.95;3.00;;;18.00;72.30;;;;;;5015145;28;20183;-73
2022/05/14 01:33:04;;;;;;;3.70;3.40;;;17.90;73.90;;;;;;5011344;28;20188;-74
2022/05/14 01:35:32;;;;;;;3.08;2.92;;;17.80;74.10;;;;;;5007819;28;20963;-75
2022/05/14 01:37:58;;;;;;;4.25;2.80;;;17.80;74.50;;;;;;5009764;28;20180;-75
2022/05/14 01:40:24;;;;;;;3.10;2.90;;;17.80;73.30;;;;;;5010268;28;20184;-74
2022/05/14 01:42:49;;;;;;;3.03;2.83;;;17.70;74.80;;;;;;5009407;28;20587;-74
2022/05/14 01:45:15;;;;;;;2.97;2.85;;;17.70;74.10;;;;;;5013366;28;20289;-74
2022/05/14 01:47:41;;;;;;;3.20;3.10;;;17.70;74.10;;;;;;5016046;28;20188;-74
2022/05/14 01:50:07;;;;;;;3.50;3.35;;;17.70;74.50;;;;;;5014043;28;20687;-75
2022/05/14 01:52:33;;;;;;;3.80;3.50;;;17.50;75.50;;;;;;5011321;28;20189;-74
2022/05/14 01:54:58;;;;;;;2.97;2.88;;;17.50;75.70;;;;;;5010903;28;20216;-73
2022/05/14 01:57:24;;;;;;;3.05;2.85;;;17.50;74.90;;;;;;5010611;28;20191;-74
2022/05/14 01:59:50;;;;;;;5.13;3.22;;;17.40;74.30;;;;;;5007781;28;20181;-73
2022/05/14 02:02:15;;;;;;;4.65;3.17;;;17.30;74.60;;;;;;5016283;28;20188;-73
2022/05/14 02:04:41;;;;;;;2.80;2.70;;;17.30;73.80;;;;;;5007886;28;20192;-74
2022/05/14 02:07:07;;;;;;;3.47;3.20;;;17.20;74.80;;;;;;5015331;28;20246;-73
2022/05/14 02:09:32;;;;;;;2.80;2.60;;;17.20;74.30;;;;;;5011687;28;20188;-74
2022/05/14 02:11:58;;;;;;;3.15;2.80;;;17.20;74.30;;;;;;5012169;28;20253;-74
2022/05/14 02:14:24;;;;;;;3.13;3.03;;;17.20;74.20;;;;;;5012103;28;20270;-73
2022/05/14 02:16:49;;;;;;;3.22;2.83;;;17.20;73.10;;;;;;5017223;28;20223;-73
2022/05/14 02:19:17;;;;;;;2.97;2.88;;;17.20;74.50;;;;;;5010211;28;20224;-74
2022/05/14 02:21:42;;;;;;;3.30;3.05;;;17.20;75.30;;;;;;5047002;28;20196;-74
2022/05/14 02:24:08;;;;;;;3.53;3.22;;;17.20;75.10;;;;;;5012869;28;20185;-75
2022/05/14 02:26:34;;;;;;;3.20;3.00;;;17.20;75.10;;;;;;5014818;28;20268;-75
2022/05/14 02:28:59;;;;;;;3.38;3.10;;;17.10;75.30;;;;;;5015058;28;20194;-74
2022/05/14 02:31:25;;;;;;;3.65;3.13;;;17.10;76.60;;;;;;5012584;28;20192;-74
2022/05/14 02:33:51;;;;;;;3.10;3.00;;;;;;;;;;5013831;28;20901;-74
2022/05/14 02:36:18;;;;;;;3.63;3.38;;;17.10;75.70;;;;;;5010226;28;20604;-74
2022/05/14 02:38:44;;;;;;;3.45;3.00;;;16.90;75.90;;;;;;5015665;28;20274;-75
2022/05/14 02:41:10;;;;;;;2.90;2.70;;;16.90;76.50;;;;;;5015465;28;20189;-74
2022/05/14 02:43:36;;;;;;;3.08;2.90;;;16.90;76.50;;;;;;5012961;28;20780;-75
2022/05/14 02:46:03;;;;;;;2.97;2.88;;;16.90;75.50;;;;;;5012596;28;20184;-74
2022/05/14 02:48:29;;;;;;;2.97;2.78;;;16.80;75.80;;;;;;5012137;28;20581;-74
2022/05/14 02:51:00;;;;;;;3.00;2.90;;;16.80;77.10;;;;;;5012267;28;20184;-74
2022/05/14 02:53:26;;;;;;;3.38;2.85;;;16.70;76.60;;;;;;5046476;28;20246;-74
2022/05/14 02:55:52;;;;;;;2.63;2.53;;;16.70;75.80;;;;;;5016963;28;20181;-74
2022/05/14 02:59:07;;;;;;;3.67;3.10;;;16.70;77.20;;;;;;5016865;28;20183;-74
2022/05/14 03:01:05;;;;;;;3.72;2.50;;;16.70;76.30;;;;;;5009647;28;20197;-74
2022/05/14 03:03:31;;;;;;;3.47;3.25;;;16.60;77.50;;;;;;5017615;28;20191;-73
2022/05/14 03:05:58;;;;;;;2.95;2.78;;;16.70;76.70;;;;;;5018495;28;20177;-72
2022/05/14 03:08:25;;;;;;;2.97;2.75;;;16.60;76.50;;;;;;5014024;28;20185;-73
2022/05/14 03:10:51;;;;;;;3.40;3.20;;;16.60;76.80;;;;;;5014774;28;20274;-74
2022/05/14 03:13:17;;;;;;;3.60;3.05;;;16.60;76.40;;;;;;5010973;28;20204;-73
2022/05/14 03:15:43;;;;;;;3.15;2.78;;;16.50;77.80;;;;;;5012362;28;20304;-73
2022/05/14 03:18:09;;;;;;;2.90;2.70;;;16.60;76.60;;;;;;5014378;28;20660;-74
2022/05/14 03:20:34;;;;;;;2.72;2.63;;;16.50;77.20;;;;;;5011234;28;20239;-74
2022/05/14 03:23:00;;;;;;;4.13;3.80;;;16.50;77.40;;;;;;5016978;28;20195;-74
2022/05/14 03:25:26;;;;;;;5.80;3.30;;;16.50;77.40;;;;;;5015530;28;20666;-74
2022/05/14 03:27:52;;;;;;;2.92;2.83;;;16.50;77.40;;;;;;5018534;28;20591;-74
2022/05/14 03:30:18;;;;;;;3.45;3.20;;;16.50;77.40;;;;;;5009914;28;20192;-74
2022/05/14 03:32:44;;;;;;;2.60;2.40;;;16.50;77.90;;;;;;5016439;28;20220;-74
2022/05/14 03:35:10;;;;;;;2.95;2.83;;;16.50;77.80;;;;;;5017436;28;20300;-74
2022/05/14 03:37:36;;;;;;;4.07;3.25;;;16.50;77.20;;;;;;5044739;28;20194;-74
2022/05/14 03:40:04;;;;;;;2.90;2.75;;;16.50;77.70;;;;;;5012022;28;20192;-74
2022/05/14 03:42:33;;;;;;;3.40;3.08;;;16.50;77.70;;;;;;5017475;28;20208;-74
2022/05/14 03:44:59;;;;;;;5.68;2.60;;;16.50;77.50;;;;;;5006879;28;20192;-74
2022/05/14 03:47:28;;;;;;;3.53;2.65;;;16.50;77.70;;;;;;5013729;28;20193;-74
2022/05/14 03:49:54;;;;;;;3.53;2.90;;;16.50;78.40;;;;;;5043082;28;21001;-74
2022/05/14 03:52:20;;;;;;;3.10;2.90;;;16.50;77.90;;;;;;5016113;28;20261;-74
2022/05/14 03:54:45;;;;;;;4.65;2.78;;;16.50;77.70;;;;;;5017004;28;20979;-74
2022/05/14 03:57:12;;;;;;;2.90;2.75;;;16.50;77.40;;;;;;5012573;28;20185;-73
2022/05/14 03:59:37;;;;;;;3.13;3.03;;;16.50;78.00;;;;;;5012780;28;20190;-74
2022/05/14 04:02:04;;;;;;;2.80;2.70;;;16.50;79.50;;;;;;5010706;28;20189;-74
2022/05/14 04:04:30;;;;;;;3.35;3.05;;;16.50;78.90;;;;;;5011498;28;20181;-74
2022/05/14 04:06:57;;;;;;;3.25;3.05;;;16.40;78.40;;;;;;5009331;28;20177;-74
2022/05/14 04:09:23;;;;;;;3.40;3.20;;;16.40;78.00;;;;;;5017976;28;20648;-74
2022/05/14 04:11:49;;;;;;;3.42;3.13;;;16.40;78.60;;;;;;5006152;28;20181;-74
2022/05/14 04:14:15;;;;;;;2.88;2.78;;;16.40;78.00;;;;;;5006662;28;20217;-73
2022/05/14 04:16:41;;;;;;;4.20;3.13;;;16.40;78.40;;;;;;5013597;28;20196;-74
2022/05/14 04:19:07;;;;;;;6.97;2.70;;;16.40;78.10;;;;;;5016225;28;20192;-73
2022/05/14 04:21:33;;;;;;;2.55;2.45;;;16.40;78.50;;;;;;5008318;28;20193;-72
2022/05/14 04:23:59;;;;;;;3.55;3.35;;;16.40;78.30;;;;;;5011698;28;20615;-73
2022/05/14 04:26:25;;;;;;;3.40;3.10;;;16.50;78.60;;;;;;5017305;28;20188;-73
2022/05/14 04:28:52;;;;;;;3.33;3.13;;;16.50;78.60;;;;;;5009226;28;20295;-75
2022/05/14 04:31:21;;;;;;;3.05;2.88;;;16.50;78.60;;;;;;5013103;28;20174;-74
2022/05/14 04:33:47;;;;;;;3.65;3.38;;;16.60;77.90;;;;;;5044661;28;20219;-73
2022/05/14 04:36:13;;;;;;;2.97;2.78;;;16.60;78.20;;;;;;5012832;28;20284;-73
2022/05/14 04:38:39;;;;;;;2.35;2.25;;;16.60;78.50;;;;;;5014051;28;20256;-73
2022/05/14 04:41:05;;;;;;;3.00;2.75;;;16.70;79.20;;;;;;5009182;28;20324;-74
2022/05/14 04:43:34;;;;;;;4.45;2.75;;;16.70;78.60;;;;;;5010558;28;20914;-73
2022/05/14 04:46:04;;;;;;;3.00;2.80;;;16.70;78.90;;;;;;5018745;28;20204;-74
2022/05/14 04:48:30;;;;;;;3.58;3.38;;;16.80;78.70;;;;;;5008376;28;20188;-74
2022/05/14 04:50:56;;;;;;;2.88;2.78;;;16.80;78.60;;;;;;5009612;28;20199;-74
2022/05/14 04:53:21;;;;;;;3.72;3.40;;;16.80;78.90;;;;;;5012037;28;20210;-74
2022/05/14 04:55:49;;;;;;;3.78;3.47;;;16.80;80.30;;;;;;5017685;28;20185;-74
2022/05/14 04:58:15;;;;;;;4.78;3.78;;;16.80;79.30;;;;;;5009393;28;20188;-74
2022/05/14 05:00:43;;;;;;;6.95;3.53;;;16.80;78.20;;;;;;5012374;28;20189;-74
2022/05/14 05:03:17;;;;;;;4.65;3.53;;;16.80;77.80;;;;;;5010922;28;20219;-74
2022/05/14 05:05:55;;;;;;;3.85;3.55;;;16.80;77.80;;;;;;5012095;28;20681;-74
2022/05/14 05:08:23;;;;;;;3.28;3.08;;;16.90;77.00;;;;;;5012962;28;20176;-74
2022/05/14 05:10:50;;;;;;;2.78;2.60;;;16.90;77.80;;;;;;5011280;28;20180;-74
2022/05/14 05:13:19;;;;;;;3.30;3.17;;;17.00;78.30;;;;;;5014158;28;20242;-75
2022/05/14 05:15:48;;;;;;;5.82;3.60;;;17.10;77.50;;;;;;5012152;28;20240;-76
2022/05/14 05:18:14;;;;;;;3.55;3.25;;;17.10;76.80;;;;;;5008233;28;20203;-76
2022/05/14 05:20:42;;;;;;;4.47;2.90;;;17.20;78.50;;;;;;5009848;28;20184;-76
2022/05/14 05:23:12;;;;;;;3.45;3.25;;;17.30;77.30;;;;;;5014579;28;20658;-73
2022/05/14 05:25:38;;;;;;;3.83;3.53;;;17.40;77.80;;;;;;5014453;28;20675;-74
2022/05/14 05:28:04;;;;;;;3.20;3.10;;;17.40;77.30;;;;;;5010750;28;20184;-73
2022/05/14 05:30:30;;;;;;;3.42;3.22;;;17.50;77.00;;;;;;5012824;28;20189;-73
2022/05/14 05:32:56;;;;;;;3.55;3.13;;;17.60;77.40;;;;;;5013149;28;20196;-73
2022/05/14 05:35:23;;;;;;;3.10;2.90;;;17.60;77.40;;;;;;5017197;28;20220;-73
2022/05/14 05:37:49;;;;;;;4.32;2.97;;;17.60;76.80;;;;;;5013494;28;20212;-73
2022/05/14 05:40:16;;;;;;;3.20;3.00;;;17.70;76.60;;;;;;5009907;28;20678;-73
2022/05/14 05:42:43;;;;;;;3.88;3.67;;;17.80;76.20;;;;;;5008541;28;20188;-73
2022/05/14 05:45:09;;;;;;;3.30;2.88;;;17.90;76.70;;;;;;5043115;28;20693;-73
2022/05/14 05:47:35;;;;;;;2.90;2.70;;;18.00;76.50;;;;;;5010273;28;20250;-73
2022/05/14 05:50:01;;;;;;;3.90;3.53;;;18.10;76.10;;;;;;5015830;28;20172;-73
2022/05/14 05:52:27;;;;;;;3.70;3.50;;;18.10;76.30;;;;;;5015976;28;20189;-73
2022/05/14 05:57:39;;;;;;;3.55;3.42;;;18.30;76.60;;;;;;5016814;28;20593;-73
2022/05/14 06:00:11;;;;;;;4.25;3.90;;;18.40;75.80;;;;;;5016433;28;20184;-73
2022/05/14 06:02:38;;;;;;;3.38;3.15;;;18.50;75.80;;;;;;5013725;28;20196;-73
2022/05/14 06:05:05;;;;;;;4.10;3.83;;;18.60;75.30;;;;;;5013479;28;20188;-73
2022/05/14 06:07:32;;;;;;;3.83;3.63;;;18.70;75.10;;;;;;5054374;28;20180;-73
2022/05/14 06:09:57;;;;;;;4.40;3.85;;;18.70;74.90;;;;;;5017250;28;20181;-73
2022/05/14 06:12:23;;;;;;;4.07;3.38;;;;;;;;;;5014867;28;20185;-73
2022/05/14 06:14:49;;;;;;;3.28;3.03;;;19.00;74.80;;;;;;5016300;28;20243;-73
2022/05/14 06:17:15;;;;;;;4.35;4.00;;;19.10;75.10;;;;;;5015885;28;21616;-73
2022/05/14 06:19:42;;;;;;;3.63;3.30;;;19.20;74.70;;;;;;5019410;28;20192;-73
2022/05/14 06:22:08;;;;;;;6.63;3.47;;;19.40;74.60;;;;;;5048060;28;20223;-73
2022/05/14 06:24:36;;;;;;;3.65;3.53;;;19.60;74.60;;;;;;5018781;28;20206;-73
2022/05/14 06:27:03;;;;;;;3.38;3.20;;;19.60;74.10;;;;;;5020300;28;20197;-73
2022/05/14 06:29:31;;;;;;;4.07;3.83;;;19.70;74.20;;;;;;5016739;28;20278;-73
2022/05/14 06:32:00;;;;;;;4.50;4.03;;;19.80;74.20;;;;;;5042920;28;20185;-73
2022/05/14 06:34:26;;;;;;;9.57;3.90;;;19.90;74.30;;;;;;5015113;28;20207;-73
2022/05/14 06:36:52;;;;;;;4.00;3.78;;;20.00;74.20;;;;;;5012014;28;20188;-74
2022/05/14 06:39:19;;;;;;;5.43;3.78;;;20.20;74.30;;;;;;5013554;28;20234;-73
2022/05/14 06:41:45;;;;;;;10.23;4.63;;;20.30;73.90;;;;;;5013673;28;20279;-73
2022/05/14 06:44:11;;;;;;;4.45;4.15;;;20.50;73.70;;;;;;5012431;28;20201;-73
2022/05/14 06:46:37;;;;;;;8.18;4.00;;;20.60;73.70;;;;;;5013782;28;20586;-73
2022/05/14 06:49:04;;;;;;;4.68;3.60;;;20.70;74.90;;;;;;5016151;28;20185;-75
2022/05/14 06:51:31;;;;;;;4.60;4.32;;;20.70;74.90;;;;;;5008844;28;20185;-73
2022/05/14 06:54:05;;;;;;;6.15;4.25;;;20.80;74.10;;;;;;5013026;28;20315;-73
2022/05/14 06:56:33;;;;;;;4.00;3.80;;;20.90;73.80;;;;;;5011474;28;20189;-73
2022/05/14 06:59:00;;;;;;;4.22;4.05;;;21.00;73.10;;;;;;5010855;28;20205;-73
2022/05/14 07:01:27;;;;;;;4.50;4.10;;;21.20;73.40;;;;;;5011782;28;20180;-73
2022/05/14 07:06:42;;;;;;;4.28;3.97;;;21.40;73.20;;;;;;5009906;28;20753;-73
2022/05/14 07:09:14;;;;;;;6.38;4.70;;;21.50;72.90;;;;;;5014758;28;20626;-72
2022/05/14 07:11:42;;;;;;;4.72;3.88;;;21.60;73.10;;;;;;5017131;28;20193;-77
2022/05/14 07:14:10;;;;;;;4.20;3.90;;;21.70;72.90;;;;;;5020197;28;20613;-78
2022/05/14 07:16:36;;;;;;;3.80;3.65;;;21.70;72.90;;;;;;5010863;28;20189;-75
2022/05/14 07:19:05;;;;;;;3.65;3.38;;;21.80;72.90;;;;;;5015069;28;21087;-74
2022/05/14 07:21:36;;;;;;;4.28;4.00;;;21.70;72.70;;;;;;5013017;28;20196;-75
2022/05/14 07:24:04;;;;;;;4.45;4.05;;;21.80;71.60;;;;;;5013272;28;20189;-75
2022/05/14 07:26:30;;;;;;;4.65;4.35;;;21.90;72.60;;;;;;5052194;28;20234;-75
2022/05/14 07:28:56;;;;;;;4.88;3.70;;;22.00;72.00;;;;;;5010102;28;20180;-76
2022/05/14 07:31:22;;;;;;;4.40;4.00;;;22.00;71.70;;;;;;5006499;28;20188;-76
2022/05/14 07:33:49;;;;;;;5.20;4.55;;;22.20;71.90;;;;;;5016669;28;20208;-72
2022/05/14 07:36:18;;;;;;;4.28;4.07;;;22.20;70.60;;;;;;5012559;28;20200;-75
2022/05/14 07:38:44;;;;;;;4.72;4.35;;;22.30;70.70;;;;;;5013400;28;20185;-76
2022/05/14 07:41:11;;;;;;;4.88;4.47;;;22.40;70.50;;;;;;5011048;28;20180;-76
2022/05/14 07:43:39;;;;;;;4.22;4.00;;;22.50;70.70;;;;;;5027833;28;20213;-76
2022/05/14 07:46:13;;;;;;;4.45;4.28;;;22.60;70.70;;;;;;5013062;28;20181;-76
2022/05/14 07:48:40;;;;;;;4.15;3.85;;;22.60;70.80;;;;;;5011506;28;20220;-74
2022/05/14 07:51:09;;;;;;;4.10;4.00;;;22.70;71.20;;;;;;5012721;28;20192;-75
2022/05/14 07:53:35;;;;;;;9.82;4.30;;;22.80;70.40;;;;;;5015065;28;20605;-78
2022/05/14 07:56:03;;;;;;;4.43;4.07;;;22.90;70.30;;;;;;5009954;28;20180;-73
2022/05/14 07:58:29;;;;;;;3.95;3.65;;;23.00;71.10;;;;;;5016643;28;20721;-75
2022/05/14 08:00:56;;;;;;;6.30;4.75;;;23.20;70.40;;;;;;5010258;28;20184;-74
2022/05/14 08:03:24;;;;;;;4.25;4.07;;;23.30;68.90;;;;;;5020928;28;20177;-75
2022/05/14 08:05:57;;;;;;;7.93;4.60;;;23.40;68.70;;;;;;5013861;28;20247;-77
2022/05/14 08:08:23;;;;;;;4.53;4.20;;;23.50;68.00;;;;;;5011437;28;20228;-75
2022/05/14 08:10:49;;;;;;;5.10;4.80;;;23.60;68.50;;;;;;5014341;28;20192;-75
2022/05/14 08:13:20;;;;;;;4.40;4.07;;;23.70;68.30;;;;;;5008300;28;20195;-73
2022/05/14 08:15:47;;;;;;;4.88;4.50;;;23.90;68.20;;;;;;5007777;28;20213;-73
2022/05/14 08:18:14;;;;;;;4.50;4.30;;;24.00;68.50;;;;;;5016351;28;20621;-74
2022/05/14 08:20:40;;;;;;;4.63;4.22;;;24.00;68.50;;;;;;5012110;28;20595;-77
2022/05/14 08:25:56;;;;;;;5.43;5.03;;;24.20;67.60;;;;;;5013272;28;20191;-74
2022/05/14 08:28:22;;;;;;;4.85;4.40;;;24.30;68.30;;;;;;5007917;28;20186;-73
2022/05/14 08:30:48;;;;;;;4.40;4.20;;;24.30;67.70;;;;;;5008749;28;20525;-73
2022/05/14 08:33:14;;;;;;;4.85;4.65;;;24.50;67.70;;;;;;5014221;28;20184;-74
2022/05/14 08:35:40;;;;;;;4.63;4.28;;;24.60;67.70;;;;;;5008921;28;20247;-74
2022/05/14 08:38:09;;;;;;;5.20;4.55;;;24.70;67.60;;;;;;5012611;28;20234;-73
2022/05/14 08:40:58;;;;;;;4.72;4.43;;;24.80;66.60;;;;;;5011809;28;20188;-73
2022/05/14 08:43:33;;;;;;;3.70;3.58;;;24.70;66.00;;;;;;5006907;28;20206;-73
2022/05/14 08:45:59;;;;;;;4.15;3.95;;;24.80;66.30;;;;;;5014450;28;20182;-73
2022/05/14 08:48:32;;;;;;;4.43;4.10;;;24.80;66.20;;;;;;5012760;28;20177;-73
2022/05/14 08:51:21;;;;;;;3.65;3.55;;;24.90;65.60;;;;;;5015447;28;20238;-74
2022/05/14 08:53:48;;;;;;;5.38;5.00;;;25.00;65.60;;;;;;5014305;28;20232;-71
2022/05/14 08:56:20;;;;;;;5.25;4.30;;;25.10;66.30;;;;;;5010714;28;20181;-70
2022/05/14 08:59:01;;;;;;;4.88;4.47;;;25.20;66.80;;;;;;5009964;28;20184;-71
2022/05/14 09:01:31;;;;;;;5.47;5.18;;;25.20;65.80;;;;;;5008985;28;20184;-79
2022/05/14 09:03:56;;;;;;;4.60;4.38;;;25.30;66.40;;;;;;5017584;28;20271;-79
2022/05/14 09:06:23;;;;;;;4.63;4.20;;;25.40;66.40;;;;;;5004638;28;20268;-80
2022/05/14 09:08:49;;;;;;;6.30;4.53;;;25.50;65.80;;;;;;5012247;28;20192;-79
2022/05/14 09:11:27;;;;;;;4.97;4.57;;;25.50;65.80;;;;;;5014590;28;20176;-76
2022/05/14 09:13:57;;;;;;;8.02;4.50;;;25.70;65.30;;;;;;5024716;28;20764;-77
2022/05/14 09:16:35;;;;;;;8.73;4.65;;;25.80;64.80;;;;;;5006206;28;20184;-75
2022/05/14 09:19:13;;;;;;;4.40;4.00;;;26.20;65.00;;;;;;5008545;28;20246;-76
2022/05/14 09:21:55;;;;;;;4.65;3.92;;;26.30;64.90;;;;;;5019223;28;20176;-76
2022/05/14 09:24:25;;;;;;;4.85;4.55;;;26.40;63.80;;;;;;5042456;28;20188;-77
2022/05/14 09:26:54;;;;;;;4.88;4.50;;;26.50;63.40;;;;;;5040906;28;20614;-78
2022/05/14 09:29:35;;;;;;;5.10;4.75;;;26.80;63.30;;;;;;5005191;28;20180;-77
2022/05/14 09:32:03;;;;;;;4.35;3.92;;;26.80;63.20;;;;;;5005907;28;20195;-77
2022/05/14 09:34:31;;;;;;;4.28;4.03;;;27.00;62.60;;;;;;5011517;28;20200;-77
2022/05/14 09:37:01;;;;;;;4.30;4.00;;;27.20;63.30;;;;;;5006805;28;20206;-77
2022/05/14 09:39:28;;;;;;;4.47;4.25;;;27.40;62.00;;;;;;5009440;28;20551;-77
2022/05/14 09:41:56;;;;;;;4.40;4.18;;;27.40;61.90;;;;;;5041546;28;20222;-77
2022/05/14 09:44:26;;;;;;;5.25;4.85;;;27.50;61.60;;;;;;5013495;28;20180;-77
2022/05/14 09:47:06;;;;;;;4.38;4.07;;;27.50;62.30;;;;;;5010886;28;20770;-76
2022/05/14 09:49:32;;;;;;;5.00;4.63;;;27.50;62.70;;;;;;5013311;28;20257;-76
2022/05/14 09:52:05;;;;;;;5.75;5.20;;;27.40;62.60;;;;;;5011941;28;20678;-75
2022/05/14 09:54:41;;;;;;;4.05;3.92;;;27.30;63.30;;;;;;5007614;28;20272;-75
2022/05/14 09:57:24;;;;;;;4.95;4.65;;;27.00;64.40;;;;;;5010382;28;20333;-75
2022/05/14 10:00:02;;;;;;;4.03;3.75;;;27.00;63.60;;;;;;5005043;28;20192;-76
2022/05/14 10:03:06;;;;;;;7.75;4.32;;;26.80;65.60;;;;;;5009939;28;20259;-76
2022/05/14 10:05:51;;;;;;;4.20;4.00;;;26.70;64.50;;;;;;5008639;28;20189;-77
2022/05/14 10:08:47;;;;;;;4.65;4.22;;;26.50;66.00;;;;;;5011791;28;20184;-76
2022/05/14 10:11:36;;;;;;;3.72;3.63;;;26.30;66.40;;;;;;5003486;28;20559;-76
2022/05/14 10:14:23;;;;;;;4.15;3.95;;;26.10;66.80;;;;;;5008261;28;20288;-75
2022/05/14 10:17:07;;;;;;;8.25;3.90;;;26.00;66.70;;;;;;5011246;28;20208;-76
2022/05/14 10:19:45;;;;;;;3.88;3.78;;;25.90;68.40;;;;;;5010400;28;20284;-76
2022/05/14 10:26:45;;;;;;;4.15;3.88;;;25.80;68.30;;;;;;5008764;28;20662;-76
2022/05/14 10:28:08;;;;;;;3.90;3.80;;;25.90;69.10;;;;;;5009430;28;20192;-76
2022/05/14 10:31:24;;;;;;;3.60;3.40;;;26.40;66.40;;;;;;5008177;28;20223;-76
2022/05/14 10:33:51;;;;;;;4.65;4.15;;;26.90;65.70;;;;;;4971207;28;20985;-76
2022/05/14 10:36:41;;;;;;;7.72;4.22;;;27.20;64.60;;;;;;4963414;28;20272;-75
2022/05/14 10:39:17;;;;;;;4.03;3.83;;;27.80;64.30;;;;;;4961285;28;20202;-76
2022/05/14 10:41:48;;;;;;;6.15;4.43;;;28.60;63.20;;;;;;4968654;28;20667;-77
2022/05/14 10:44:30;;;;;;;3.90;3.55;;;29.40;62.50;;;;;;4971158;28;20918;-76
2022/05/14 10:47:00;;;;;;;4.47;4.28;;;30.10;61.40;;;;;;4970405;28;20190;-76
2022/05/14 10:49:49;;;;;;;4.20;3.80;;;30.40;59.70;;;;;;4971154;28;20186;-77
2022/05/14 10:52:16;;;;;;;4.03;3.78;;;30.20;59.70;;;;;;4969495;28;20210;-76
2022/05/14 10:54:44;;;;;;;3.88;3.58;;;30.00;60.40;;;;;;4970785;28;20224;-76
2022/05/14 10:57:18;;;;;;;3.65;3.47;;;29.80;60.30;;;;;;4975084;28;20603;-76
2022/05/14 10:59:52;;;;;;;4.28;3.97;;;29.30;63.10;;;;;;4975383;28;20738;-76
2022/05/14 11:02:33;;;;;;;4.28;4.00;;;29.30;62.60;;;;;;4972856;28;20190;-75
2022/05/14 11:04:59;;;;;;;5.95;3.95;;;29.10;64.20;;;;;;4973141;28;20201;-76
2022/05/14 11:07:31;;;;;;;4.15;3.78;;;29.50;64.50;;;;;;4968770;28;20200;-76
2022/05/14 11:10:15;;;;;;;3.88;3.67;;;29.60;64.10;;;;;;4986278;28;20234;-76
2022/05/14 11:12:42;;;;;;;3.95;3.80;;;30.30;60.70;;;;;;5013468;28;20188;-76
2022/05/14 11:15:21;;;;;;;4.18;3.95;;;30.30;60.60;;;;;;5014957;28;20833;-76
2022/05/14 11:17:48;;;;;;;4.20;4.00;;;30.50;61.20;;;;;;5013004;28;20210;-75
2022/05/14 11:20:17;;;;;;;4.03;3.92;;;30.80;58.70;;;;;;5011135;28;20185;-76
2022/05/14 11:22:51;;;;;;;3.17;3.08;;;31.10;59.20;;;;;;5017661;28;20272;-76
2022/05/14 11:25:17;;;;;;;3.60;3.40;;;31.40;56.50;;;;;;5012494;28;20229;-76
2022/05/14 11:28:02;;;;;;;4.15;3.85;;;31.80;56.90;;;;;;5018644;28;21076;-75
2022/05/14 11:31:08;;;;;;;3.63;3.38;;;32.00;57.30;;;;;;5014545;28;20674;-76
2022/05/14 11:33:34;;;;;;;3.97;3.67;;;32.40;57.40;;;;;;4973462;28;20201;-77
2022/05/14 11:36:25;;;;;;;3.72;3.53;;;32.90;57.00;;;;;;4974448;28;20292;-76
2022/05/14 11:39:24;;;;;;;3.65;3.50;;;33.40;57.00;;;;;;4969497;28;20189;-76
2022/05/14 11:42:09;;;;;;;3.58;3.42;;;33.40;55.20;;;;;;4970019;28;20200;-77
2022/05/14 11:44:46;;;;;;;3.95;3.65;;;33.60;55.30;;;;;;4973214;28;20190;-75
2022/05/14 11:47:36;;;;;;;5.13;4.70;;;33.90;54.60;;;;;;4975101;28;20189;-76
2022/05/14 11:50:03;;;;;;;3.47;3.38;;;34.30;53.40;;;;;;4968167;28;20185;-76
2022/05/14 11:52:48;;;;;;;6.20;3.80;;;34.30;52.70;;;;;;4961544;28;20753;-74
2022/05/14 11:55:40;;;;;;;3.78;3.58;;;34.10;51.80;;;;;;4963677;28;20224;-75
2022/05/14 11:58:27;;;;;;;3.83;3.53;;;33.70;52.40;;;;;;4964201;28;20190;-75
2022/05/14 12:00:55;;;;;;;3.92;3.58;;;32.70;53.70;;;;;;4963707;28;20186;-75
2022/05/14 12:03:31;;;;;;;3.83;3.60;;;32.30;54.30;;;;;;4971968;28;20217;-75
2022/05/14 12:06:23;;;;;;;4.40;3.58;;;31.90;54.80;;;;;;4964883;28;20228;-75
2022/05/14 12:09:31;;;;;;;4.25;3.78;;;31.10;55.80;;;;;;4968072;28;20194;-75
2022/05/14 12:12:29;;;;;;;3.90;3.75;;;30.60;57.30;;;;;;5007658;28;20267;-73
2022/05/14 12:14:55;;;;;;;5.20;3.92;;;30.20;57.60;;;;;;4937813;29;20226;-75
2022/05/14 12:17:22;;;;;;;3.63;3.53;;;29.80;58.50;;;;;;4930428;29;20195;-75
2022/05/14 12:19:55;;;;;;;3.83;3.50;;;29.70;58.40;;;;;;4940740;29;20282;-76
2022/05/14 12:22:25;;;;;;;3.35;3.25;;;29.40;59.90;;;;;;4937706;29;20705;-77
2022/05/14 12:25:05;;;;;;;3.72;3.53;;;29.40;59.60;;;;;;4926226;29;20183;-76
2022/05/14 12:27:33;;;;;;;3.85;3.58;;;29.50;58.20;;;;;;4942361;29;20365;-75
2022/05/14 12:33:11;;;;;;;6.43;3.33;;;29.40;57.70;;;;;;4944694;29;20270;-76
2022/05/14 12:33:12;;;;;;;3.20;3.03;;;29.30;57.50;;;;;;4936999;29;20206;-73
2022/05/14 12:35:40;;;;;;;2.33;2.22;;;29.00;57.50;;;;;;4936419;29;20301;-73
2022/05/14 12:38:11;;;;;;;1.92;1.88;;;28.60;57.30;;;;;;4938296;29;20197;-73
2022/05/14 12:40:38;;;;;;;1.90;1.90;;;28.20;57.20;;;;;;4939057;29;20282;-74
2022/05/14 12:43:12;;;;;;;1.75;1.75;;;27.80;58.00;;;;;;4936293;29;20577;-75
2022/05/14 12:45:44;;;;;;;2.03;1.92;;;27.50;58.20;;;;;;4944244;29;20691;-74
2022/05/14 12:48:13;;;;;;;1.92;1.90;;;27.20;58.60;;;;;;4942649;29;20223;-75
2022/05/14 12:50:49;;;;;;;2.22;2.13;;;27.00;58.90;;;;;;4939007;29;20191;-73
2022/05/14 12:53:14;;;;;;;2.60;2.50;;;26.80;59.20;;;;;;5016407;28;20192;-74
2022/05/14 12:55:45;;;;;;;2.05;2.05;;;26.60;59.60;;;;;;5012281;28;20224;-75
2022/05/14 12:58:13;;;;;;;1.98;1.98;;;26.40;60.90;;;;;;5012847;28;20181;-74
2022/05/14 13:00:39;;;;;;;3.70;2.30;;;25.90;62.60;;;;;;5012912;28;20663;-72
2022/05/14 13:03:19;;;;;;;2.28;1.80;;;25.20;62.80;;;;;;5046160;28;20188;-72
2022/05/14 13:06:19;;;;;;;2.15;2.05;;;25.20;62.90;;;;;;5013540;28;20215;-74
2022/05/14 13:08:48;;;;;;;1.40;1.40;;;25.00;64.10;;;;;;5019436;28;20642;-74
2022/05/14 13:11:22;;;;;;;2.05;1.50;;;24.60;63.20;;;;;;5008145;28;20177;-74
2022/05/14 13:13:54;;;;;;;1.17;1.17;;;24.30;63.60;;;;;;5015006;28;20176;-74
2022/05/14 13:16:24;;;;;;;1.50;1.50;;;24.20;64.30;;;;;;5011204;28;20697;-74
2022/05/14 13:19:17;;;;;;;1.15;1.15;;;23.80;65.40;;;;;;5013080;28;20281;-75
2022/05/14 13:21:52;;;;;;;1.52;1.42;;;23.80;66.20;;;;;;5010434;28;20280;-73